Terminal Aerodrome Forecast
Issued by NWS

Home | Current Version | Previous Version | Text Only | Print | Product List | Glossary On
Versions: 1 2 3 4 5 6 7 8 9 10 11 12 13 14 15 16 17 18 19 20
716
FTUS41 KPBZ 012335
TAFBVI
TAF
KBVI 012335Z 0200/0224 33005KT P6SM -SHRA BKN090
     FM020600 VRB03KT P6SM OVC025
     FM020800 20005KT 6SM -SHRA OVC010
     FM021500 28009G16KT P6SM OVC025
     FM021800 30008KT P6SM BKN040
      AMD NOT SKED 0202/0212=

USA.gov is the U.S. government's official web portal to all federal, state and local government web resources and services.